< < Back
Terminal Aerodrome Forecast


Current Version              Previous Versions:   1  2  3  4  5  6  7  8  9  

Terminal Aerodrome Forecast

086
FTUS44 KMOB 221200 RRA
TAFMOB
TAF
KMOB 221259Z 2213/2312 00000KT P6SM FEW250
     FM221900 01005KT P6SM VCTS SCT030CB
     FM230000 01005KT P6SM SKC=

Latest METAR

874
SAUS80 KWBC 221400 CCA
MTRMOB
METAR KMOB 221356Z 35004KT 7SM FEW200 25/22 A3006 RMK AO2 SLP176
T02500217


USA.gov is the U.S. government's official web portal to all federal, state and local government web resources and services.